createdAt,value
2018-04-23T00:00:05.547Z,19.12
2018-04-23T00:01:10.578Z,19.00
2018-04-23T00:02:06.031Z,19.19
2018-04-23T00:03:05.588Z,19.25
2018-04-23T00:04:06.119Z,19.19
2018-04-23T00:05:07.373Z,19.19
2018-04-23T00:06:06.005Z,19.12
2018-04-23T00:07:05.935Z,19.12
2018-04-23T00:08:05.538Z,19.19
2018-04-23T00:09:06.468Z,19.12
2018-04-23T00:10:06.409Z,19.12
2018-04-23T00:11:06.113Z,19.12
2018-04-23T00:12:05.954Z,19.12
2018-04-23T00:13:06.372Z,19.19
2018-04-23T00:14:06.528Z,19.19
2018-04-23T00:15:05.972Z,19.12
2018-04-23T00:16:06.389Z,19.00
2018-04-23T00:17:06.116Z,19.00
2018-04-23T00:18:06.100Z,19.00
2018-04-23T00:19:05.533Z,19.19
2018-04-23T00:20:11.235Z,19.12
2018-04-23T00:21:05.942Z,19.19
2018-04-23T00:22:05.976Z,19.19
2018-04-23T00:23:06.227Z,19.19
2018-04-23T00:24:05.945Z,19.19
2018-04-23T00:25:06.423Z,19.19
2018-04-23T00:26:06.123Z,19.06
2018-04-23T00:27:05.626Z,19.06
2018-04-23T00:28:05.862Z,19.06
2018-04-23T00:29:11.532Z,18.94
2018-04-23T00:30:06.273Z,18.94
2018-04-23T00:31:05.796Z,18.75
2018-04-23T00:32:05.469Z,18.62
2018-04-23T00:33:05.645Z,18.44
2018-04-23T00:34:11.871Z,18.62
2018-04-23T00:35:05.655Z,18.62
2018-04-23T00:36:05.785Z,18.69
2018-04-23T00:37:05.969Z,18.62
2018-04-23T00:38:06.367Z,18.62
2018-04-23T00:39:05.866Z,18.69
2018-04-23T00:40:06.116Z,18.75
2018-04-23T00:41:06.350Z,18.69
2018-04-23T00:42:05.456Z,18.44
2018-04-23T00:43:05.887Z,18.31
2018-04-23T00:44:07.548Z,18.31
2018-04-23T00:45:06.083Z,18.19
2018-04-23T00:46:06.071Z,18.12
2018-04-23T00:47:05.829Z,18.12
2018-04-23T00:48:06.544Z,18.38
2018-04-23T00:49:05.709Z,18.44
2018-04-23T00:50:05.781Z,18.44
2018-04-23T00:51:11.895Z,18.62
2018-04-23T00:52:05.452Z,18.56
2018-04-23T00:53:06.190Z,18.56
2018-04-23T00:54:05.714Z,18.44
2018-04-23T00:55:05.617Z,18.44
2018-04-23T00:56:06.490Z,18.38
2018-04-23T00:57:05.906Z,18.38
2018-04-23T00:58:07.019Z,18.38
2018-04-23T00:59:05.668Z,18.44
2018-04-23T01:00:07.494Z,18.44
2018-04-23T01:01:06.351Z,18.44
2018-04-23T01:02:06.564Z,18.56
2018-04-23T01:03:06.878Z,18.62
2018-04-23T01:04:06.141Z,18.62
2018-04-23T01:05:06.439Z,18.62
2018-04-23T01:06:06.015Z,18.62
2018-04-23T01:07:05.659Z,18.69
2018-04-23T01:08:06.417Z,18.62
2018-04-23T01:09:06.602Z,18.56
2018-04-23T01:10:06.396Z,18.31
2018-04-23T01:11:06.176Z,18.19
2018-04-23T01:12:06.267Z,18.00
2018-04-23T01:13:05.642Z,17.94
2018-04-23T01:14:06.422Z,17.81
2018-04-23T01:15:06.154Z,17.81
2018-04-23T01:16:05.703Z,17.94
2018-04-23T01:17:06.793Z,17.94
2018-04-23T01:18:06.505Z,18.00
2018-04-23T01:19:06.223Z,18.00
2018-04-23T01:20:06.255Z,17.88
2018-04-23T01:21:06.293Z,17.75
2018-04-23T01:22:06.368Z,17.62
2018-04-23T01:23:05.539Z,17.56
2018-04-23T01:24:05.877Z,17.62
2018-04-23T01:25:05.789Z,17.62
2018-04-23T01:26:06.519Z,17.56
2018-04-23T01:27:06.271Z,17.62
2018-04-23T01:28:05.652Z,17.75
2018-04-23T01:29:06.023Z,17.75
2018-04-23T01:30:06.586Z,17.69
2018-04-23T01:31:07.130Z,17.75
2018-04-23T01:32:06.114Z,17.75
2018-04-23T01:33:05.564Z,17.62
2018-04-23T01:34:05.704Z,17.50
2018-04-23T01:35:05.767Z,17.44
2018-04-23T01:36:06.580Z,17.31
2018-04-23T01:37:06.178Z,17.38
2018-04-23T01:38:06.238Z,17.25
2018-04-23T01:39:06.149Z,17.38
2018-04-23T01:40:06.241Z,17.44
2018-04-23T01:41:11.291Z,17.50
2018-04-23T01:42:06.368Z,17.50
2018-04-23T01:43:05.954Z,17.56
2018-04-23T01:44:05.938Z,17.50
2018-04-23T01:45:06.122Z,17.56
2018-04-23T01:46:06.439Z,17.62
2018-04-23T01:47:06.662Z,17.69
2018-04-23T01:48:11.383Z,17.56
2018-04-23T01:49:05.720Z,17.69
2018-04-23T01:50:06.162Z,17.75
2018-04-23T01:51:06.595Z,17.75
2018-04-23T01:52:07.581Z,17.81
2018-04-23T01:53:06.914Z,17.88
2018-04-23T01:54:05.611Z,17.75
2018-04-23T01:55:06.313Z,17.75
2018-04-23T01:56:06.356Z,17.81
2018-04-23T01:57:05.696Z,17.88
2018-04-23T01:58:06.106Z,17.88
2018-04-23T01:59:11.556Z,17.81
2018-04-23T02:00:06.545Z,17.75
2018-04-23T02:01:06.021Z,17.62
2018-04-23T02:02:06.342Z,17.56
2018-04-23T02:03:06.021Z,17.56
2018-04-23T02:04:05.712Z,17.44
2018-04-23T02:05:05.779Z,17.31
2018-04-23T02:06:06.263Z,17.25
2018-04-23T02:07:06.489Z,17.12
2018-04-23T02:08:06.346Z,17.25
2018-04-23T02:09:06.104Z,17.44
2018-04-23T02:10:05.957Z,17.50
2018-04-23T02:11:06.037Z,17.56
2018-04-23T02:12:06.186Z,17.62
2018-04-23T02:13:06.437Z,17.62
2018-04-23T02:14:06.281Z,17.69
2018-04-23T02:15:05.943Z,17.69
2018-04-23T02:16:05.787Z,17.69
2018-04-23T02:17:06.471Z,17.75
2018-04-23T02:18:06.261Z,17.62
2018-04-23T02:19:05.630Z,17.62
2018-04-23T02:20:06.014Z,17.62
2018-04-23T02:21:06.180Z,17.50
2018-04-23T02:22:06.254Z,17.50
2018-04-23T02:23:06.163Z,17.50
2018-04-23T02:24:11.977Z,17.44
2018-04-23T02:25:06.164Z,17.50
2018-04-23T02:26:06.106Z,17.50
2018-04-23T02:27:06.021Z,17.44
2018-04-23T02:28:05.698Z,17.38
2018-04-23T02:29:06.032Z,17.44
2018-04-23T02:30:06.019Z,17.44
2018-04-23T02:31:06.415Z,17.38
2018-04-23T02:32:06.430Z,17.38
2018-04-23T02:33:05.711Z,17.38
2018-04-23T02:34:05.540Z,17.38
2018-04-23T02:35:06.422Z,17.25
2018-04-23T02:36:05.804Z,17.25
2018-04-23T02:37:06.286Z,17.12
2018-04-23T02:38:05.600Z,17.12
2018-04-23T02:39:05.633Z,17.06
2018-04-23T02:40:11.333Z,17.06
2018-04-23T02:41:06.449Z,17.06
2018-04-23T02:42:06.524Z,17.12
2018-04-23T02:43:06.596Z,17.12
2018-04-23T02:44:06.184Z,17.25
2018-04-23T02:45:06.875Z,17.25
2018-04-23T02:46:06.108Z,17.19
2018-04-23T02:47:11.107Z,17.00
2018-04-23T02:48:05.746Z,16.94
2018-04-23T02:49:05.733Z,16.88
2018-04-23T02:50:06.179Z,16.88
2018-04-23T02:51:05.865Z,16.88
2018-04-23T02:52:06.305Z,16.88
2018-04-23T02:53:06.018Z,16.81
2018-04-23T02:54:05.632Z,16.81
2018-04-23T02:55:05.551Z,17.00
2018-04-23T02:56:06.517Z,17.19
2018-04-23T02:57:06.328Z,17.31
2018-04-23T02:58:05.819Z,17.31
2018-04-23T02:59:06.406Z,17.12
2018-04-23T03:00:06.208Z,17.12
2018-04-23T03:01:05.945Z,17.12
2018-04-23T03:02:06.164Z,17.06
2018-04-23T03:03:12.397Z,17.06
2018-04-23T03:04:10.958Z,17.19
2018-04-23T03:05:05.863Z,17.06
2018-04-23T03:06:06.017Z,16.94
2018-04-23T03:07:06.216Z,16.88
2018-04-23T03:08:06.102Z,16.81
2018-04-23T03:09:06.441Z,16.75
2018-04-23T03:10:06.584Z,16.75
2018-04-23T03:11:06.268Z,16.62
2018-04-23T03:12:06.209Z,16.56
2018-04-23T03:13:06.397Z,16.50
2018-04-23T03:14:05.735Z,16.50
2018-04-23T03:15:06.526Z,16.44
2018-04-23T03:16:05.792Z,16.75
2018-04-23T03:17:05.936Z,16.88
2018-04-23T03:18:06.751Z,16.88
2018-04-23T03:19:11.125Z,16.88
2018-04-23T03:20:05.853Z,17.06
2018-04-23T03:21:05.795Z,17.06
2018-04-23T03:22:06.431Z,16.88
2018-04-23T03:23:06.643Z,16.75
2018-04-23T03:24:06.118Z,16.62
2018-04-23T03:25:06.176Z,16.62
2018-04-23T03:26:06.504Z,16.62
2018-04-23T03:27:06.743Z,16.56
2018-04-23T03:28:05.727Z,16.44
2018-04-23T03:29:06.634Z,16.38
2018-04-23T03:30:06.271Z,16.31
2018-04-23T03:31:06.083Z,16.25
2018-04-23T03:32:06.464Z,16.25
2018-04-23T03:33:06.364Z,16.19
2018-04-23T03:34:05.708Z,16.25
2018-04-23T03:35:05.551Z,16.50
2018-04-23T03:36:11.729Z,16.56
2018-04-23T03:37:06.557Z,16.56
2018-04-23T03:38:05.610Z,16.69
2018-04-23T03:39:06.493Z,16.62
2018-04-23T03:40:06.191Z,16.56
2018-04-23T03:41:11.401Z,16.50
2018-04-23T03:42:06.165Z,16.44
2018-04-23T03:43:06.095Z,16.44
2018-04-23T03:44:05.829Z,16.44
2018-04-23T03:45:05.987Z,16.44
2018-04-23T03:46:06.435Z,16.44
2018-04-23T03:47:06.032Z,16.31
2018-04-23T03:48:05.783Z,16.25
2018-04-23T03:49:06.032Z,16.25
2018-04-23T03:50:06.129Z,16.38
2018-04-23T03:51:06.509Z,16.50
2018-04-23T03:52:07.108Z,16.62
2018-04-23T03:53:05.793Z,16.69
2018-04-23T03:54:06.378Z,16.81
2018-04-23T03:55:06.349Z,16.81
2018-04-23T03:56:11.924Z,16.69
2018-04-23T03:57:06.938Z,16.69
2018-04-23T03:58:05.695Z,16.75
2018-04-23T03:59:05.855Z,16.69
2018-04-23T04:00:06.184Z,16.62
2018-04-23T04:01:06.469Z,16.62
2018-04-23T04:02:05.537Z,16.50
2018-04-23T04:03:07.052Z,16.56
2018-04-23T04:04:06.094Z,16.69
2018-04-23T04:05:05.879Z,16.81
2018-04-23T04:06:11.165Z,16.81
2018-04-23T04:07:06.691Z,16.75
2018-04-23T04:08:06.915Z,16.75
2018-04-23T04:09:06.587Z,16.75
2018-04-23T04:10:06.078Z,16.69
2018-04-23T04:11:05.804Z,16.75
2018-04-23T04:12:11.099Z,16.69
2018-04-23T04:13:06.325Z,16.69
2018-04-23T04:14:11.606Z,16.69
2018-04-23T04:15:06.505Z,16.69
2018-04-23T04:16:06.500Z,16.75
2018-04-23T04:17:06.872Z,16.69
2018-04-23T04:18:05.632Z,16.69
2018-04-23T04:19:06.216Z,16.88
2018-04-23T04:20:05.775Z,17.12
2018-04-23T04:21:05.775Z,17.12
2018-04-23T04:22:06.019Z,17.31
2018-04-23T04:23:06.036Z,17.44
2018-04-23T04:24:05.862Z,17.38
2018-04-23T04:25:06.275Z,17.19
2018-04-23T04:26:05.934Z,17.12
2018-04-23T04:27:05.715Z,17.06
2018-04-23T04:28:13.773Z,17.06
2018-04-23T04:29:05.870Z,17.25
2018-04-23T04:30:06.186Z,17.31
2018-04-23T04:31:12.323Z,17.31
2018-04-23T04:32:06.491Z,17.44
2018-04-23T04:33:06.673Z,17.44
2018-04-23T04:34:06.734Z,17.56
2018-04-23T04:35:06.478Z,17.50
2018-04-23T04:36:06.532Z,17.62
2018-04-23T04:37:06.097Z,17.56
2018-04-23T04:38:06.011Z,17.31
2018-04-23T04:39:05.881Z,17.38
2018-04-23T04:40:05.808Z,17.56
2018-04-23T04:41:05.857Z,17.62
2018-04-23T04:42:06.017Z,17.62
2018-04-23T04:43:06.028Z,17.62
2018-04-23T04:44:06.434Z,17.69
2018-04-23T04:45:05.947Z,17.81
2018-04-23T04:46:06.380Z,17.69
2018-04-23T04:47:06.066Z,17.50
2018-04-23T04:48:06.018Z,17.44
2018-04-23T04:49:06.036Z,17.50
2018-04-23T04:50:06.253Z,17.31
2018-04-23T04:51:06.263Z,17.38
2018-04-23T04:52:06.021Z,17.31
2018-04-23T04:53:12.364Z,17.25
2018-04-23T04:54:06.226Z,17.38
2018-04-23T04:55:06.184Z,17.31
2018-04-23T04:56:05.910Z,17.44
2018-04-23T04:57:05.799Z,17.50
2018-04-23T04:58:05.938Z,17.38
2018-04-23T04:59:06.134Z,17.38
2018-04-23T05:00:06.180Z,17.44
2018-04-23T05:01:06.433Z,17.62
2018-04-23T05:02:05.811Z,17.56
2018-04-23T05:03:05.703Z,17.69
2018-04-23T05:04:11.112Z,18.06
2018-04-23T05:05:10.924Z,18.25
2018-04-23T05:06:06.513Z,18.38
2018-04-23T05:07:06.348Z,18.44
2018-04-23T05:08:06.507Z,18.19
2018-04-23T05:09:06.031Z,18.19
2018-04-23T05:10:06.760Z,18.00
2018-04-23T05:11:05.717Z,18.12
2018-04-23T05:12:05.547Z,18.44
2018-04-23T05:13:11.259Z,18.50
2018-04-23T05:14:06.296Z,18.50
2018-04-23T05:15:06.458Z,18.44
2018-04-23T05:16:06.594Z,18.38
2018-04-23T05:17:06.265Z,18.31
2018-04-23T05:18:06.040Z,18.31
2018-04-23T05:19:06.264Z,18.25
2018-04-23T05:20:06.458Z,18.19
2018-04-23T05:21:11.476Z,18.19
2018-04-23T05:22:06.222Z,18.12
2018-04-23T05:23:06.127Z,18.56
2018-04-23T05:24:06.478Z,18.81
2018-04-23T05:25:05.896Z,19.00
2018-04-23T05:26:06.301Z,19.06
2018-04-23T05:27:06.080Z,19.19
2018-04-23T05:28:05.858Z,19.06
2018-04-23T05:29:06.047Z,18.94
2018-04-23T05:30:05.616Z,18.81
2018-04-23T05:31:05.784Z,18.62
2018-04-23T05:32:06.840Z,18.56
2018-04-23T05:33:05.644Z,18.56
2018-04-23T05:34:06.265Z,18.81
2018-04-23T05:35:05.940Z,18.94
2018-04-23T05:36:05.942Z,18.75
2018-04-23T05:37:06.191Z,18.81
2018-04-23T05:38:05.786Z,18.88
2018-04-23T05:39:05.859Z,19.00
2018-04-23T05:40:06.006Z,19.06
2018-04-23T05:41:06.009Z,19.25
2018-04-23T05:42:06.173Z,19.44
2018-04-23T05:43:06.680Z,19.44
2018-04-23T05:44:05.709Z,19.62
2018-04-23T05:45:05.774Z,20.31
2018-04-23T05:46:06.426Z,20.38
2018-04-23T05:47:05.536Z,20.12
2018-04-23T05:48:05.829Z,20.19
2018-04-23T05:49:06.266Z,20.19
2018-04-23T05:50:06.262Z,20.19
2018-04-23T05:51:06.115Z,20.19
2018-04-23T05:52:05.956Z,20.06
2018-04-23T05:53:05.773Z,19.81
2018-04-23T05:54:06.114Z,19.75
2018-04-23T05:55:06.166Z,19.62
2018-04-23T05:56:06.891Z,19.88
2018-04-23T05:57:06.288Z,20.00
2018-04-23T05:58:06.346Z,19.94
2018-04-23T05:59:06.114Z,19.88
2018-04-23T06:00:06.543Z,20.00
2018-04-23T06:01:06.424Z,20.31
2018-04-23T06:02:05.755Z,20.31
2018-04-23T06:03:11.223Z,20.25
2018-04-23T06:04:06.126Z,20.31
2018-04-23T06:05:05.864Z,20.38
2018-04-23T06:06:06.016Z,20.62
2018-04-23T06:07:05.703Z,20.69
2018-04-23T06:08:05.783Z,20.81
2018-04-23T06:09:06.902Z,21.38
2018-04-23T06:10:05.639Z,21.75
2018-04-23T06:11:12.189Z,21.62
2018-04-23T06:12:05.927Z,21.44
2018-04-23T06:13:05.526Z,21.44
2018-04-23T06:14:06.263Z,21.44
2018-04-23T06:15:05.958Z,21.44
2018-04-23T06:16:05.783Z,21.44
2018-04-23T06:17:05.712Z,21.44
2018-04-23T06:18:05.947Z,21.44
2018-04-23T06:19:06.046Z,21.50
2018-04-23T06:20:05.633Z,21.50
2018-04-23T06:21:06.580Z,21.44
2018-04-23T06:22:06.480Z,21.50
2018-04-23T06:23:06.559Z,21.44
2018-04-23T06:24:05.814Z,21.44
2018-04-23T06:25:06.262Z,21.50
2018-04-23T06:26:10.931Z,21.44
2018-04-23T06:27:05.625Z,21.38
2018-04-23T06:28:05.674Z,21.38
2018-04-23T06:29:05.787Z,21.38
2018-04-23T06:30:06.105Z,21.38
2018-04-23T06:31:06.267Z,21.38
2018-04-23T06:32:06.345Z,21.44
2018-04-23T06:33:06.424Z,21.56
2018-04-23T06:34:06.438Z,21.50
2018-04-23T06:35:05.649Z,21.62
2018-04-23T06:36:06.733Z,21.56
2018-04-23T06:37:06.679Z,21.62
2018-04-23T06:38:06.496Z,21.62
2018-04-23T06:39:06.051Z,21.62
2018-04-23T06:40:05.993Z,21.56
2018-04-23T06:41:05.706Z,21.50
2018-04-23T06:42:05.897Z,21.56
2018-04-23T06:43:05.868Z,21.56
2018-04-23T06:44:06.037Z,21.62
2018-04-23T06:45:05.865Z,21.62
2018-04-23T06:46:05.894Z,21.62
2018-04-23T06:47:05.940Z,21.56
2018-04-23T06:48:05.820Z,21.56
2018-04-23T06:49:06.523Z,21.56
2018-04-23T06:50:06.929Z,21.56
2018-04-23T06:51:06.060Z,21.75
2018-04-23T06:52:06.905Z,21.88
2018-04-23T06:53:05.539Z,21.94
2018-04-23T06:54:06.301Z,22.00
2018-04-23T06:55:12.615Z,22.00
2018-04-23T06:56:06.500Z,22.12
2018-04-23T06:57:06.105Z,22.25
2018-04-23T06:58:05.515Z,22.31
2018-04-23T06:59:06.260Z,22.31
2018-04-23T07:00:11.324Z,22.31
2018-04-23T07:01:06.450Z,22.38
2018-04-23T07:02:05.765Z,22.38
2018-04-23T07:03:05.802Z,22.44
2018-04-23T07:04:06.576Z,22.44
2018-04-23T07:05:06.668Z,22.44
2018-04-23T07:06:06.421Z,22.50
2018-04-23T07:07:06.199Z,22.62
2018-04-23T07:08:06.023Z,22.69
2018-04-23T07:09:06.475Z,22.75
2018-04-23T07:10:05.957Z,22.69
2018-04-23T07:11:06.142Z,22.69
2018-04-23T07:12:06.750Z,22.75
2018-04-23T07:13:06.355Z,22.88
2018-04-23T07:14:05.553Z,22.94
2018-04-23T07:15:05.902Z,22.94
2018-04-23T07:16:06.432Z,23.00
2018-04-23T07:17:06.421Z,23.12
2018-04-23T07:18:06.038Z,23.06
2018-04-23T07:19:11.459Z,23.19
2018-04-23T07:20:06.291Z,23.19
2018-04-23T07:21:11.387Z,23.19
2018-04-23T07:22:05.852Z,23.25
2018-04-23T07:23:06.131Z,23.25
2018-04-23T07:24:06.510Z,23.44
2018-04-23T07:25:05.941Z,23.50
2018-04-23T07:26:10.978Z,23.62
2018-04-23T07:27:05.860Z,23.62
2018-04-23T07:28:05.856Z,23.69
2018-04-23T07:29:05.717Z,23.75
2018-04-23T07:30:11.599Z,23.81
2018-04-23T07:31:07.304Z,23.88
2018-04-23T07:32:07.295Z,23.88
2018-04-23T07:33:06.434Z,23.88
2018-04-23T07:34:06.254Z,23.88
2018-04-23T07:35:05.794Z,23.81
2018-04-23T07:36:05.541Z,23.81
2018-04-23T07:37:06.101Z,23.94
2018-04-23T07:38:06.185Z,24.00
2018-04-23T07:39:06.041Z,24.06
2018-04-23T07:40:06.411Z,24.19
2018-04-23T07:41:06.431Z,24.31
2018-04-23T07:42:06.092Z,24.44
2018-04-23T07:43:06.623Z,24.50
2018-04-23T07:44:06.164Z,24.62
2018-04-23T07:45:05.795Z,24.75
2018-04-23T07:46:06.193Z,24.75
2018-04-23T07:47:06.161Z,24.81
2018-04-23T07:48:06.183Z,24.88
2018-04-23T07:49:06.162Z,24.94
2018-04-23T07:50:06.111Z,25.00
2018-04-23T07:51:05.789Z,25.06
2018-04-23T07:52:06.168Z,25.19
2018-04-23T07:53:11.505Z,25.19
2018-04-23T07:54:06.378Z,25.25
2018-04-23T07:55:06.355Z,25.38
2018-04-23T07:56:06.718Z,25.44
2018-04-23T07:57:05.968Z,25.50
2018-04-23T07:58:05.899Z,25.56
2018-04-23T07:59:06.754Z,25.69
2018-04-23T08:00:06.510Z,25.75
2018-04-23T08:01:05.478Z,25.88
2018-04-23T08:02:05.959Z,25.88
2018-04-23T08:03:05.917Z,25.94
2018-04-23T08:04:06.694Z,26.00
2018-04-23T08:05:06.242Z,26.00
2018-04-23T08:06:06.065Z,26.00
2018-04-23T08:07:06.449Z,25.94
2018-04-23T08:08:06.279Z,25.88
2018-04-23T08:09:06.037Z,25.81
2018-04-23T08:10:05.717Z,25.81
2018-04-23T08:11:05.779Z,25.69
2018-04-23T08:12:06.059Z,25.56
2018-04-23T08:13:06.025Z,25.56
2018-04-23T08:14:06.137Z,25.50
2018-04-23T08:15:06.105Z,25.50
2018-04-23T08:16:05.633Z,25.44
2018-04-23T08:17:05.961Z,25.50
2018-04-23T08:18:06.119Z,25.50
2018-04-23T08:19:06.498Z,25.44
2018-04-23T08:20:05.665Z,25.38
2018-04-23T08:21:06.525Z,25.50
2018-04-23T08:22:05.954Z,25.56
2018-04-23T08:23:06.898Z,25.69
2018-04-23T08:24:06.015Z,25.75
2018-04-23T08:25:06.140Z,25.88
2018-04-23T08:26:06.338Z,25.94
2018-04-23T08:27:06.362Z,26.00
2018-04-23T08:28:05.584Z,26.00
2018-04-23T08:29:05.946Z,26.06
2018-04-23T08:30:06.668Z,26.19
2018-04-23T08:31:06.497Z,26.31
2018-04-23T08:32:06.066Z,26.19
2018-04-23T08:33:05.573Z,26.12
2018-04-23T08:34:05.635Z,26.12
2018-04-23T08:35:06.580Z,26.25
2018-04-23T08:36:05.730Z,26.31
2018-04-23T08:37:06.188Z,26.25
2018-04-23T08:38:05.767Z,26.25
2018-04-23T08:39:05.941Z,26.19
2018-04-23T08:40:06.500Z,26.12
2018-04-23T08:41:05.624Z,26.06
2018-04-23T08:42:06.419Z,26.06
2018-04-23T08:43:06.462Z,26.00
2018-04-23T08:44:06.100Z,25.94
2018-04-23T08:45:06.480Z,25.88
2018-04-23T08:46:06.683Z,25.81
2018-04-23T08:47:06.350Z,25.75
2018-04-23T08:48:06.601Z,25.69
2018-04-23T08:49:06.512Z,25.75
2018-04-23T08:50:06.438Z,25.75
2018-04-23T08:51:06.363Z,25.75
2018-04-23T08:52:06.586Z,25.81
2018-04-23T08:53:05.787Z,25.94
2018-04-23T08:54:05.711Z,25.88
2018-04-23T08:55:06.178Z,25.81
2018-04-23T08:56:06.599Z,25.81
2018-04-23T08:57:06.262Z,25.88
2018-04-23T08:58:12.067Z,25.94
2018-04-23T08:59:06.361Z,26.06
2018-04-23T09:00:05.730Z,26.00
2018-04-23T09:01:06.830Z,25.88
2018-04-23T09:02:06.508Z,25.75
2018-04-23T09:03:06.397Z,25.69
2018-04-23T09:04:05.882Z,25.62
2018-04-23T09:05:06.516Z,25.50
2018-04-23T09:06:05.626Z,25.38
2018-04-23T09:07:06.359Z,25.25
2018-04-23T09:08:06.697Z,25.19
2018-04-23T09:09:06.519Z,25.12
2018-04-23T09:10:06.129Z,25.00
2018-04-23T09:11:06.109Z,24.94
2018-04-23T09:12:06.423Z,24.81
2018-04-23T09:13:06.920Z,24.69
2018-04-23T09:14:05.711Z,24.69
2018-04-23T09:15:11.405Z,24.69
2018-04-23T09:16:05.852Z,24.69
2018-04-23T09:17:06.429Z,24.75
2018-04-23T09:18:05.871Z,24.62
2018-04-23T09:19:11.141Z,24.62
2018-04-23T09:20:06.524Z,24.62
2018-04-23T09:21:06.426Z,24.62
2018-04-23T09:22:06.129Z,24.69
2018-04-23T09:23:05.717Z,24.62
2018-04-23T09:24:11.091Z,24.62
2018-04-23T09:25:06.332Z,24.62
2018-04-23T09:26:06.199Z,24.56
2018-04-23T09:27:06.081Z,24.44
2018-04-23T09:28:06.032Z,24.31
2018-04-23T09:29:05.705Z,24.38
2018-04-23T09:30:06.086Z,24.50
2018-04-23T09:31:06.334Z,24.56
2018-04-23T09:32:06.187Z,24.50
2018-04-23T09:33:06.227Z,24.44
2018-04-23T09:34:11.601Z,24.62
2018-04-23T09:35:05.788Z,24.75
2018-04-23T09:36:06.570Z,24.88
2018-04-23T09:37:06.433Z,24.81
2018-04-23T09:38:06.241Z,24.94
2018-04-23T09:39:06.640Z,24.75
2018-04-23T09:40:06.165Z,24.81
2018-04-23T09:41:05.872Z,24.94
2018-04-23T09:42:05.871Z,25.00
2018-04-23T09:43:06.186Z,25.06
2018-04-23T09:44:06.120Z,25.00
2018-04-23T09:45:05.853Z,24.94
2018-04-23T09:46:06.420Z,24.88
2018-04-23T09:47:06.155Z,24.75
2018-04-23T09:48:05.821Z,24.69
2018-04-23T09:49:06.417Z,24.81
2018-04-23T09:50:05.993Z,24.94
2018-04-23T09:51:06.195Z,25.00
2018-04-23T09:52:11.601Z,25.06
2018-04-23T09:53:06.568Z,25.06
2018-04-23T09:54:05.485Z,25.19
2018-04-23T09:55:05.790Z,25.19
2018-04-23T09:56:05.965Z,25.12
2018-04-23T09:57:06.277Z,25.06
2018-04-23T09:58:06.407Z,25.00
2018-04-23T09:59:05.628Z,25.06
2018-04-23T10:00:05.623Z,25.00
2018-04-23T10:01:05.964Z,24.94
2018-04-23T10:02:05.782Z,24.88
2018-04-23T10:03:06.201Z,24.81
2018-04-23T10:04:06.003Z,24.75
2018-04-23T10:05:06.279Z,24.75
2018-04-23T10:06:06.280Z,24.69
2018-04-23T10:07:05.635Z,24.69
2018-04-23T10:08:05.787Z,24.62
2018-04-23T10:09:05.955Z,24.62
2018-04-23T10:10:06.505Z,24.56
2018-04-23T10:11:06.349Z,24.50
2018-04-23T10:12:05.637Z,24.44
2018-04-23T10:13:06.115Z,24.44
2018-04-23T10:14:06.521Z,24.38
2018-04-23T10:15:05.637Z,24.31
2018-04-23T10:16:05.722Z,24.31
2018-04-23T10:17:06.033Z,24.25
2018-04-23T10:18:05.550Z,24.19
2018-04-23T10:19:06.669Z,24.19
2018-04-23T10:20:11.439Z,24.19
2018-04-23T10:21:06.747Z,24.25
2018-04-23T10:22:06.109Z,24.44
2018-04-23T10:23:06.082Z,24.44
2018-04-23T10:24:05.486Z,24.38
2018-04-23T10:25:06.437Z,24.38
2018-04-23T10:26:05.798Z,24.38
2018-04-23T10:27:06.024Z,24.38
2018-04-23T10:28:06.598Z,24.44
2018-04-23T10:29:05.512Z,24.38
2018-04-23T10:30:06.493Z,24.38
2018-04-23T10:31:06.207Z,24.38
2018-04-23T10:32:06.423Z,24.44
2018-04-23T10:33:06.806Z,24.44
2018-04-23T10:34:06.439Z,24.56
2018-04-23T10:35:05.817Z,24.56
2018-04-23T10:36:05.935Z,24.62
2018-04-23T10:37:05.633Z,24.69
2018-04-23T10:38:06.488Z,24.69
2018-04-23T10:39:06.440Z,24.69
2018-04-23T10:40:06.015Z,24.81
2018-04-23T10:41:07.783Z,24.88
2018-04-23T10:42:05.890Z,25.12
2018-04-23T10:43:05.941Z,25.25
2018-04-23T10:44:05.816Z,25.31
2018-04-23T10:45:06.161Z,25.25
2018-04-23T10:46:06.474Z,25.12
2018-04-23T10:47:06.025Z,25.00
2018-04-23T10:48:05.948Z,25.19
2018-04-23T10:49:06.427Z,25.25
2018-04-23T10:50:06.502Z,25.25
2018-04-23T10:51:05.560Z,25.19
2018-04-23T10:52:06.293Z,25.19
2018-04-23T10:53:11.472Z,25.12
2018-04-23T10:54:06.190Z,25.12
2018-04-23T10:55:06.355Z,25.25
2018-04-23T10:56:07.220Z,25.12
2018-04-23T10:57:05.905Z,25.12
2018-04-23T10:58:07.328Z,25.12
2018-04-23T10:59:06.433Z,25.25
2018-04-23T11:00:06.684Z,25.31
2018-04-23T11:01:06.345Z,25.31
2018-04-23T11:02:07.020Z,25.31
2018-04-23T11:03:06.109Z,25.31
2018-04-23T11:04:06.361Z,25.25
2018-04-23T11:05:06.389Z,25.19
2018-04-23T11:06:06.438Z,25.31
2018-04-23T11:07:05.737Z,25.31
2018-04-23T11:08:06.263Z,25.25
2018-04-23T11:09:06.625Z,25.12
2018-04-23T11:10:06.122Z,25.00
2018-04-23T11:11:05.926Z,24.94
2018-04-23T11:12:06.765Z,24.88
2018-04-23T11:13:06.684Z,25.00
2018-04-23T11:14:06.686Z,25.06
2018-04-23T11:15:07.140Z,25.12
2018-04-23T11:16:05.872Z,25.25
2018-04-23T11:17:05.724Z,25.25
2018-04-23T11:18:06.462Z,25.25
2018-04-23T11:19:06.105Z,25.25
2018-04-23T11:20:05.794Z,25.25
2018-04-23T11:21:06.115Z,25.25
2018-04-23T11:22:05.945Z,25.12
2018-04-23T11:23:06.433Z,25.06
2018-04-23T11:24:06.231Z,25.00
2018-04-23T11:25:11.577Z,24.94
2018-04-23T11:26:11.688Z,24.88
2018-04-23T11:27:05.716Z,24.81
2018-04-23T11:28:06.119Z,24.75
2018-04-23T11:29:06.762Z,24.69
2018-04-23T11:30:06.544Z,24.69
2018-04-23T11:31:06.378Z,24.81
2018-04-23T11:32:06.427Z,24.94
2018-04-23T11:33:06.108Z,24.94
2018-04-23T11:34:06.403Z,25.00
2018-04-23T11:35:06.563Z,25.00
2018-04-23T11:36:10.947Z,25.12
2018-04-23T11:37:06.164Z,25.06
2018-04-23T11:38:06.518Z,25.00
2018-04-23T11:39:11.708Z,24.94
2018-04-23T11:40:06.594Z,24.81
2018-04-23T11:41:06.349Z,24.88
2018-04-23T11:42:06.343Z,25.00
2018-04-23T11:43:06.191Z,25.06
2018-04-23T11:44:11.276Z,25.19
2018-04-23T11:45:05.911Z,25.19
2018-04-23T11:46:06.017Z,25.12
2018-04-23T11:47:06.714Z,25.19
2018-04-23T11:48:06.866Z,25.19
2018-04-23T11:49:05.970Z,25.12
2018-04-23T11:50:06.420Z,25.06
2018-04-23T11:51:13.413Z,25.19
2018-04-23T11:52:05.669Z,25.12
2018-04-23T11:53:06.011Z,25.00
2018-04-23T11:54:06.182Z,25.00
2018-04-23T11:55:06.280Z,25.12
2018-04-23T11:56:06.040Z,25.31
2018-04-23T11:57:06.501Z,25.38
2018-04-23T11:58:05.819Z,25.44
2018-04-23T11:59:06.515Z,25.56
2018-04-23T12:00:06.395Z,25.50
2018-04-23T12:01:06.098Z,25.31
2018-04-23T12:02:06.187Z,25.25
2018-04-23T12:03:05.870Z,25.12
2018-04-23T12:04:06.019Z,25.12
2018-04-23T12:05:06.194Z,25.38
2018-04-23T12:06:05.872Z,25.25
2018-04-23T12:07:06.868Z,25.19
2018-04-23T12:08:06.430Z,25.25
2018-04-23T12:09:07.097Z,25.38
2018-04-23T12:10:06.069Z,25.38
2018-04-23T12:11:06.289Z,25.31
2018-04-23T12:12:06.602Z,25.25
2018-04-23T12:13:06.344Z,25.19
2018-04-23T12:14:05.955Z,25.12
2018-04-23T12:15:05.958Z,25.19
2018-04-23T12:16:06.530Z,25.19
2018-04-23T12:17:06.092Z,25.25
2018-04-23T12:18:06.243Z,25.19
2018-04-23T12:19:05.937Z,25.25
2018-04-23T12:20:06.268Z,25.19
2018-04-23T12:21:06.374Z,25.25
2018-04-23T12:22:06.724Z,25.44
2018-04-23T12:23:11.431Z,25.50
2018-04-23T12:24:12.494Z,25.50
2018-04-23T12:25:06.426Z,25.56
2018-04-23T12:26:05.622Z,25.69
2018-04-23T12:27:06.268Z,25.75
2018-04-23T12:28:07.367Z,25.81
2018-04-23T12:29:06.114Z,25.81
2018-04-23T12:30:06.017Z,25.88
2018-04-23T12:31:06.201Z,25.81
2018-04-23T12:32:05.860Z,25.88
2018-04-23T12:33:05.867Z,25.81
2018-04-23T12:34:05.961Z,25.75
2018-04-23T12:35:05.877Z,25.81
2018-04-23T12:36:05.832Z,25.81
2018-04-23T12:37:06.276Z,25.88
2018-04-23T12:38:11.616Z,25.88
2018-04-23T12:39:06.680Z,25.94
2018-04-23T12:40:06.634Z,26.00
2018-04-23T12:41:05.883Z,26.00
2018-04-23T12:42:05.772Z,26.06
2018-04-23T12:43:06.355Z,26.00
2018-04-23T12:44:06.520Z,25.94
2018-04-23T12:45:06.396Z,25.94
2018-04-23T12:46:06.441Z,26.06
2018-04-23T12:47:05.722Z,26.12
2018-04-23T12:48:05.976Z,26.12
2018-04-23T12:49:05.893Z,26.06
2018-04-23T12:50:06.655Z,26.00
2018-04-23T12:51:05.806Z,26.00
2018-04-23T12:52:05.967Z,26.06